createdAt,value
2018-12-19T00:00:28.710Z,442.57
2018-12-19T00:02:59.031Z,470.07
2018-12-19T00:05:28.995Z,427.77
2018-12-19T00:07:56.986Z,449.33
2018-12-19T00:10:24.983Z,429.97
2018-12-19T00:12:53.958Z,447.43
2018-12-19T00:15:21.849Z,416.40
2018-12-19T00:17:51.873Z,449.37
2018-12-19T00:20:20.026Z,418.07
2018-12-19T00:22:48.044Z,464.70
2018-12-19T00:25:16.191Z,423.17
2018-12-19T00:27:46.272Z,436.73
2018-12-19T00:30:16.186Z,459.63
2018-12-19T00:32:46.399Z,446.10
2018-12-19T00:35:16.315Z,419.80
2018-12-19T00:37:44.370Z,433.50
2018-12-19T00:40:12.580Z,419.33
2018-12-19T00:42:40.854Z,405.63
2018-12-19T00:45:08.836Z,408.60
2018-12-19T00:47:36.814Z,443.67
2018-12-19T00:50:05.823Z,417.37
2018-12-19T00:52:34.077Z,437.33
2018-12-19T00:55:01.906Z,420.57
2018-12-19T00:57:29.923Z,458.00
2018-12-19T01:02:33.869Z,431.33
2018-12-19T01:05:01.916Z,423.23
2018-12-19T01:07:31.243Z,424.43
2018-12-19T01:09:59.255Z,412.67
2018-12-19T01:12:27.286Z,432.80
2018-12-19T01:14:55.150Z,450.00
2018-12-19T01:17:23.096Z,441.73
2018-12-19T01:19:51.142Z,452.20
2018-12-19T01:22:19.306Z,382.23
2018-12-19T01:25:04.339Z,368.17
2018-12-19T01:27:32.358Z,422.87
2018-12-19T01:30:00.156Z,404.37
2018-12-19T01:32:28.032Z,424.97
2018-12-19T01:34:55.957Z,406.47
2018-12-19T01:37:23.871Z,438.43
2018-12-19T01:39:51.884Z,378.67
2018-12-19T01:42:19.966Z,420.93
2018-12-19T01:44:47.834Z,358.40
2018-12-19T01:47:15.645Z,417.07
2018-12-19T01:49:44.497Z,387.03
2018-12-19T01:52:12.537Z,400.43
2018-12-19T01:54:40.504Z,366.97
2018-12-19T01:57:08.341Z,405.43
2018-12-19T01:59:36.356Z,391.63
2018-12-19T02:02:04.306Z,366.50
2018-12-19T02:04:33.441Z,365.70
2018-12-19T02:07:01.565Z,376.50
2018-12-19T02:09:30.105Z,389.80
2018-12-19T02:11:57.966Z,398.07
2018-12-19T02:14:25.807Z,384.40
2018-12-19T02:16:54.059Z,406.43
2018-12-19T02:19:21.919Z,383.53
2018-12-19T02:21:49.745Z,382.77
2018-12-19T02:24:17.701Z,374.20
2018-12-19T02:26:45.744Z,391.40
2018-12-19T02:29:13.813Z,386.77
2018-12-19T02:31:46.112Z,374.77
2018-12-19T02:34:14.257Z,368.63
2018-12-19T02:36:42.225Z,390.57
2018-12-19T02:39:10.053Z,374.83
2018-12-19T02:41:37.964Z,370.17
2018-12-19T02:44:05.973Z,363.83
2018-12-19T02:46:33.915Z,339.30
2018-12-19T02:49:01.818Z,358.17
2018-12-19T02:51:29.625Z,337.97
2018-12-19T02:53:57.493Z,387.33
2018-12-19T02:56:25.410Z,346.57
2018-12-19T02:58:53.339Z,362.73
2018-12-19T03:01:21.436Z,344.07
2018-12-19T03:03:49.497Z,355.33
2018-12-19T03:06:17.848Z,329.67
2018-12-19T03:08:45.752Z,300.70
2018-12-19T03:13:57.402Z,323.07
2018-12-19T03:16:26.544Z,307.63
2018-12-19T03:18:54.349Z,327.43
2018-12-19T03:21:22.555Z,352.77
2018-12-19T03:23:50.362Z,351.00
2018-12-19T03:26:18.229Z,327.77
2018-12-19T03:28:46.097Z,316.87
2018-12-19T03:31:13.909Z,312.03
2018-12-19T03:33:41.717Z,321.30
2018-12-19T03:36:09.980Z,321.17
2018-12-19T03:38:37.880Z,325.13
2018-12-19T03:41:05.740Z,317.53
2018-12-19T03:43:33.871Z,340.40
2018-12-19T03:46:01.737Z,331.63
2018-12-19T03:48:36.316Z,326.17
2018-12-19T03:51:04.384Z,314.67
2018-12-19T03:53:32.171Z,319.83
2018-12-19T03:56:00.999Z,343.77
2018-12-19T03:58:28.769Z,339.20
2018-12-19T04:00:56.934Z,369.40
2018-12-19T04:03:24.934Z,334.67
2018-12-19T04:05:54.005Z,324.00
2018-12-19T04:08:21.897Z,320.40
2018-12-19T04:10:49.727Z,341.97
2018-12-19T04:13:17.564Z,367.37
2018-12-19T04:15:45.346Z,375.13
2018-12-19T04:18:13.211Z,365.60
2018-12-19T04:20:40.983Z,318.70
2018-12-19T04:23:09.306Z,337.43
2018-12-19T04:25:38.228Z,341.30
2018-12-19T04:28:06.171Z,350.77
2018-12-19T04:30:36.933Z,341.60
2018-12-19T04:33:04.897Z,335.70
2018-12-19T04:35:32.929Z,353.00
2018-12-19T04:38:00.900Z,355.80
2018-12-19T04:40:28.703Z,308.07
2018-12-19T04:42:56.659Z,356.57
2018-12-19T04:45:24.608Z,329.20
2018-12-19T04:47:53.661Z,366.33
2018-12-19T04:50:21.626Z,336.50
2018-12-19T04:52:49.577Z,381.87
2018-12-19T04:55:17.520Z,337.83
2018-12-19T04:57:45.371Z,345.70
2018-12-19T05:00:13.471Z,336.83
2018-12-19T05:02:41.348Z,362.67
2018-12-19T05:05:09.506Z,341.57
2018-12-19T05:07:37.374Z,352.93
2018-12-19T05:10:12.150Z,329.80
2018-12-19T05:12:35.592Z,394.80
2018-12-19T05:15:04.030Z,327.30
2018-12-19T05:17:32.038Z,348.83
2018-12-19T05:20:00.218Z,297.23
2018-12-19T05:22:28.025Z,289.50
2018-12-19T05:24:55.861Z,293.47
2018-12-19T05:27:23.792Z,348.33
2018-12-19T05:29:53.190Z,319.83
2018-12-19T05:32:21.466Z,330.63
2018-12-19T05:34:49.686Z,304.07
2018-12-19T05:37:17.556Z,327.07
2018-12-19T05:39:45.381Z,285.90
2018-12-19T05:42:13.158Z,329.03
2018-12-19T05:44:41.243Z,293.97
2018-12-19T05:47:09.957Z,326.80
2018-12-19T05:49:38.081Z,298.03
2018-12-19T05:52:05.849Z,329.33
2018-12-19T05:54:33.620Z,279.47
2018-12-19T05:57:01.609Z,314.70
2018-12-19T05:59:29.396Z,295.07
2018-12-19T06:01:59.263Z,297.60
2018-12-19T06:04:27.056Z,298.13
2018-12-19T06:06:55.034Z,341.27
2018-12-19T06:09:23.175Z,292.13
2018-12-19T06:11:50.949Z,279.17
2018-12-19T06:14:24.977Z,292.00
2018-12-19T06:16:52.853Z,284.43
2018-12-19T06:19:20.607Z,290.80
2018-12-19T06:21:48.414Z,317.97
2018-12-19T06:24:16.261Z,275.13
2018-12-19T06:26:43.989Z,299.87
2018-12-19T06:29:11.747Z,290.70
2018-12-19T06:31:39.503Z,309.10
2018-12-19T06:34:07.257Z,285.00
2018-12-19T06:36:35.048Z,276.43
2018-12-19T06:39:05.571Z,274.50
2018-12-19T06:41:34.756Z,266.10
2018-12-19T06:44:02.696Z,267.57
2018-12-19T06:46:30.669Z,265.57
2018-12-19T06:48:58.608Z,279.77
2018-12-19T06:51:26.354Z,280.97
2018-12-19T06:53:54.301Z,266.63
2018-12-19T06:56:23.692Z,269.80
2018-12-19T06:58:52.020Z,220.97
2018-12-19T07:01:19.844Z,245.07
2018-12-19T07:03:47.718Z,245.97
2018-12-19T07:06:15.656Z,242.70
2018-12-19T07:08:43.509Z,242.20
2018-12-19T07:11:11.468Z,261.13
2018-12-19T07:13:39.336Z,222.63
2018-12-19T07:16:07.116Z,241.93
2018-12-19T07:18:34.989Z,245.53
2018-12-19T07:21:02.883Z,237.13
2018-12-19T07:23:30.814Z,251.23
2018-12-19T07:25:58.666Z,224.13
2018-12-19T07:28:26.549Z,282.67
2018-12-19T07:30:54.703Z,229.53
2018-12-19T07:33:22.549Z,241.17
2018-12-19T07:35:50.570Z,269.27
2018-12-19T07:38:19.593Z,254.70
2018-12-19T07:40:47.412Z,264.60
2018-12-19T07:43:15.220Z,231.67
2018-12-19T07:45:43.213Z,245.80
2018-12-19T07:48:11.696Z,254.80
2018-12-19T07:50:39.546Z,240.43
2018-12-19T07:53:07.479Z,264.73
2018-12-19T07:58:17.480Z,236.13
2018-12-19T08:00:46.348Z,249.80
2018-12-19T08:03:14.380Z,250.23
2018-12-19T08:05:42.198Z,254.53
2018-12-19T08:08:10.086Z,236.17
2018-12-19T08:10:38.059Z,248.57
2018-12-19T08:13:05.985Z,255.80
2018-12-19T08:15:33.781Z,225.90
2018-12-19T08:18:01.616Z,265.30
2018-12-19T08:20:29.955Z,237.17
2018-12-19T08:22:57.841Z,297.17
2018-12-19T08:25:25.742Z,235.33
2018-12-19T08:27:53.693Z,280.53
2018-12-19T08:30:21.637Z,288.07
2018-12-19T08:32:49.464Z,296.77
2018-12-19T08:35:17.284Z,253.83
2018-12-19T08:37:45.172Z,265.30
2018-12-19T08:40:12.969Z,261.87
2018-12-19T08:42:40.811Z,277.37
2018-12-19T08:45:09.081Z,238.80
2018-12-19T08:47:36.993Z,278.40
2018-12-19T08:50:07.794Z,264.50
2018-12-19T08:52:35.578Z,271.83
2018-12-19T08:55:03.791Z,250.47
2018-12-19T08:57:32.703Z,299.70
2018-12-19T09:00:00.625Z,249.70
2018-12-19T09:02:28.555Z,272.27
2018-12-19T09:04:56.318Z,258.13
2018-12-19T09:07:24.193Z,290.07
2018-12-19T09:09:52.092Z,254.47
2018-12-19T09:12:19.928Z,268.40
2018-12-19T09:14:47.898Z,234.40
2018-12-19T09:17:16.186Z,263.17
2018-12-19T09:19:44.316Z,246.47
2018-12-19T09:22:12.453Z,292.97
2018-12-19T09:24:40.205Z,249.97
2018-12-19T09:27:08.249Z,264.87
2018-12-19T09:29:36.101Z,236.10
2018-12-19T09:32:05.766Z,266.70
2018-12-19T09:34:33.584Z,249.33
2018-12-19T09:37:01.583Z,278.30
2018-12-19T09:39:30.401Z,247.50
2018-12-19T09:41:58.344Z,259.50
2018-12-19T09:44:26.288Z,250.10
2018-12-19T09:46:54.084Z,229.23
2018-12-19T09:49:24.927Z,241.77
2018-12-19T09:51:52.728Z,294.40
2018-12-19T09:54:21.708Z,258.90
2018-12-19T09:56:49.496Z,249.67
2018-12-19T09:59:17.661Z,258.23
2018-12-19T10:01:45.471Z,242.80
2018-12-19T10:04:13.264Z,255.07
2018-12-19T10:06:41.123Z,258.57
2018-12-19T10:09:14.841Z,238.67
2018-12-19T10:11:40.256Z,245.33
2018-12-19T10:14:08.405Z,240.23
2018-12-19T10:16:36.224Z,240.53
2018-12-19T10:19:04.146Z,253.73
2018-12-19T10:21:32.817Z,245.20
2018-12-19T10:24:00.777Z,248.77
2018-12-19T10:26:28.649Z,249.27
2018-12-19T10:28:56.524Z,245.13
2018-12-19T10:31:24.583Z,308.13
2018-12-19T10:33:52.356Z,291.70
2018-12-19T10:36:24.774Z,281.50
2018-12-19T10:38:52.852Z,249.07
2018-12-19T10:41:25.457Z,269.90
2018-12-19T10:43:54.113Z,267.33
2018-12-19T10:46:22.035Z,255.53
2018-12-19T10:48:49.864Z,297.23
2018-12-19T10:51:17.717Z,318.00
2018-12-19T10:53:45.669Z,250.50
2018-12-19T10:56:13.496Z,257.87
2018-12-19T10:58:41.309Z,271.60
2018-12-19T11:01:09.333Z,264.00
2018-12-19T11:03:37.342Z,260.13
2018-12-19T11:06:05.468Z,238.07
2018-12-19T11:08:33.465Z,249.37
2018-12-19T11:11:01.390Z,248.70
2018-12-19T11:13:29.265Z,249.40
2018-12-19T11:15:57.173Z,245.33
2018-12-19T11:18:24.968Z,255.07
2018-12-19T11:20:52.926Z,239.83
2018-12-19T11:23:20.749Z,260.03
2018-12-19T11:25:48.677Z,250.77
2018-12-19T11:28:16.899Z,242.13
2018-12-19T11:30:44.956Z,250.43
2018-12-19T11:33:12.831Z,249.83
2018-12-19T11:35:40.617Z,259.60
2018-12-19T11:38:08.513Z,262.53
2018-12-19T11:40:36.294Z,244.30
2018-12-19T11:43:05.011Z,268.23
2018-12-19T11:45:33.860Z,253.47
2018-12-19T11:48:04.871Z,268.97
2018-12-19T11:50:32.800Z,249.93
2018-12-19T11:53:00.566Z,277.70
2018-12-19T11:55:28.753Z,253.97
2018-12-19T11:57:56.647Z,283.73
2018-12-19T12:00:24.442Z,253.13
2018-12-19T12:02:52.356Z,294.67
2018-12-19T12:05:20.131Z,264.03
2018-12-19T12:07:48.047Z,295.03
2018-12-19T12:10:15.852Z,286.63
2018-12-19T12:12:43.641Z,278.63
2018-12-19T12:15:11.623Z,274.87
2018-12-19T12:17:39.532Z,282.43
2018-12-19T12:20:08.173Z,239.57
2018-12-19T12:22:36.302Z,298.73
2018-12-19T12:25:05.127Z,263.70
2018-12-19T12:27:33.116Z,288.13
2018-12-19T12:30:01.132Z,281.07
2018-12-19T12:32:29.197Z,292.17
2018-12-19T12:34:57.340Z,264.13
2018-12-19T12:37:25.129Z,312.43
2018-12-19T12:39:53.232Z,256.10
2018-12-19T12:45:07.959Z,266.40
2018-12-19T12:47:35.947Z,277.33
2018-12-19T12:50:04.817Z,257.27
2018-12-19T12:52:32.821Z,271.80
2018-12-19T12:55:00.890Z,263.17
2018-12-19T12:57:28.801Z,262.87
2018-12-19T12:59:56.621Z,242.17
2018-12-19T13:02:24.389Z,283.43
2018-12-19T13:04:52.155Z,247.70
2018-12-19T13:07:20.148Z,268.03
2018-12-19T13:09:47.985Z,234.73
2018-12-19T13:12:15.956Z,292.60
2018-12-19T13:14:44.193Z,241.97
2018-12-19T13:17:11.985Z,286.73
2018-12-19T13:19:40.067Z,233.43
2018-12-19T13:22:08.040Z,264.63
2018-12-19T13:24:36.202Z,219.47
2018-12-19T13:27:04.125Z,251.97
2018-12-19T13:29:31.909Z,249.43
2018-12-19T13:32:00.134Z,259.10
2018-12-19T13:34:28.081Z,251.53
2018-12-19T13:36:56.156Z,237.10
2018-12-19T13:39:23.962Z,247.57
2018-12-19T13:41:51.813Z,265.50
2018-12-19T13:44:29.066Z,245.40
2018-12-19T13:47:01.520Z,244.97
2018-12-19T13:49:30.953Z,240.00
2018-12-19T13:52:06.082Z,281.33
2018-12-19T13:54:34.485Z,253.03
2018-12-19T13:57:02.368Z,251.67
2018-12-19T13:59:30.226Z,258.40
2018-12-19T14:01:58.279Z,266.30
2018-12-19T14:04:26.273Z,252.27
2018-12-19T14:06:54.310Z,242.47
2018-12-19T14:09:22.166Z,262.10
2018-12-19T14:11:50.151Z,243.03
2018-12-19T14:14:18.843Z,297.27
2018-12-19T14:16:48.278Z,258.33
2018-12-19T14:19:16.485Z,261.47
2018-12-19T14:21:44.643Z,279.83
2018-12-19T14:24:12.656Z,247.03
2018-12-19T14:26:40.471Z,240.63
2018-12-19T14:29:08.373Z,249.93
2018-12-19T14:31:36.907Z,238.80
2018-12-19T14:34:04.710Z,254.43
2018-12-19T14:36:32.717Z,250.77
2018-12-19T14:39:00.679Z,251.80
2018-12-19T14:41:28.967Z,261.97
2018-12-19T14:43:56.972Z,267.27
2018-12-19T14:46:25.072Z,240.27
2018-12-19T14:48:52.878Z,242.73
2018-12-19T14:51:21.108Z,263.23
2018-12-19T14:53:49.502Z,257.57
2018-12-19T14:56:17.319Z,342.73
2018-12-19T14:58:45.161Z,260.30
2018-12-19T15:01:13.263Z,255.47
2018-12-19T15:03:41.617Z,257.13
2018-12-19T15:06:09.901Z,255.17
2018-12-19T15:08:37.864Z,290.97
2018-12-19T15:11:05.877Z,247.43
2018-12-19T15:13:33.832Z,252.43
2018-12-19T15:16:03.346Z,263.97
2018-12-19T15:18:31.668Z,247.67
2018-12-19T15:21:00.294Z,246.77
2018-12-19T15:23:28.281Z,254.10
2018-12-19T15:25:56.492Z,291.33
2018-12-19T15:28:27.728Z,237.13
2018-12-19T15:30:57.220Z,240.87
2018-12-19T15:33:25.252Z,254.83
2018-12-19T15:35:54.084Z,255.93
2018-12-19T15:38:22.083Z,249.43
2018-12-19T15:40:49.884Z,246.53
2018-12-19T15:43:21.971Z,266.60
2018-12-19T15:45:51.114Z,248.90
2018-12-19T15:48:20.695Z,240.90
2018-12-19T15:50:49.701Z,249.03
2018-12-19T15:53:17.604Z,269.83
2018-12-19T15:55:45.445Z,235.93
2018-12-19T15:58:13.323Z,244.33
2018-12-19T16:00:42.688Z,249.10
2018-12-19T16:03:10.536Z,242.00
2018-12-19T16:05:38.545Z,227.37
2018-12-19T16:08:07.841Z,252.73
2018-12-19T16:10:40.144Z,238.90
2018-12-19T16:13:10.633Z,256.07
2018-12-19T16:15:45.573Z,248.80
2018-12-19T16:18:13.837Z,276.03
2018-12-19T16:20:48.029Z,257.07
2018-12-19T16:23:15.823Z,259.67
2018-12-19T16:25:43.764Z,238.13
2018-12-19T16:28:11.608Z,270.87
2018-12-19T16:30:39.453Z,288.20
2018-12-19T16:33:07.579Z,263.60
2018-12-19T16:35:37.806Z,242.60
2018-12-19T16:38:05.922Z,275.17
2018-12-19T16:40:34.358Z,235.50
2018-12-19T16:43:02.341Z,261.90
2018-12-19T16:45:30.262Z,260.50
2018-12-19T16:47:58.113Z,278.50
2018-12-19T16:50:25.941Z,255.47
2018-12-19T16:53:00.429Z,270.60
2018-12-19T16:55:28.234Z,258.47
2018-12-19T16:57:56.090Z,285.40
2018-12-19T17:00:23.925Z,329.70
2018-12-19T17:02:51.887Z,295.80
2018-12-19T17:05:19.715Z,266.43
2018-12-19T17:07:47.696Z,305.90
2018-12-19T17:10:15.557Z,285.50
2018-12-19T17:12:43.713Z,289.83
2018-12-19T17:15:11.533Z,281.00
2018-12-19T17:17:39.524Z,289.37
2018-12-19T17:20:07.660Z,253.03
2018-12-19T17:22:35.555Z,323.87
2018-12-19T17:25:03.677Z,283.57
2018-12-19T17:27:31.548Z,307.23
2018-12-19T17:29:59.411Z,280.87
2018-12-19T17:32:27.581Z,310.30
2018-12-19T17:34:55.539Z,280.63
2018-12-19T17:37:26.903Z,287.97
2018-12-19T17:39:54.693Z,308.97
2018-12-19T17:42:22.540Z,335.37
2018-12-19T17:44:50.328Z,312.43
2018-12-19T17:47:18.170Z,326.47
2018-12-19T17:49:46.243Z,299.07
2018-12-19T17:52:14.123Z,371.07
2018-12-19T17:54:41.937Z,313.83
2018-12-19T17:57:09.771Z,359.70
2018-12-19T17:59:37.798Z,337.03
2018-12-19T18:02:06.119Z,356.17
2018-12-19T18:04:34.183Z,347.40
2018-12-19T18:07:02.295Z,376.23
2018-12-19T18:09:30.202Z,361.17
2018-12-19T18:11:58.268Z,360.00
2018-12-19T18:14:26.253Z,349.93
2018-12-19T18:16:54.283Z,352.83
2018-12-19T18:19:24.576Z,358.83
2018-12-19T18:21:52.680Z,356.00
2018-12-19T18:24:21.970Z,367.80
2018-12-19T18:26:50.173Z,369.07
2018-12-19T18:29:19.097Z,354.57
2018-12-19T18:31:47.114Z,341.97
2018-12-19T18:34:15.141Z,332.70
2018-12-19T18:36:43.182Z,328.83
2018-12-19T18:39:25.933Z,341.50
2018-12-19T18:41:50.454Z,325.23
2018-12-19T18:44:18.899Z,352.13
2018-12-19T18:46:46.708Z,364.47
2018-12-19T18:49:14.662Z,346.57
2018-12-19T18:51:42.954Z,328.33
2018-12-19T18:54:14.851Z,369.77
2018-12-19T18:56:43.258Z,364.27
2018-12-19T18:59:11.895Z,364.03
2018-12-19T19:01:40.088Z,368.93
2018-12-19T19:04:08.077Z,366.87
2018-12-19T19:06:36.914Z,369.90
2018-12-19T19:09:05.752Z,358.43
2018-12-19T19:11:35.661Z,346.37
2018-12-19T19:14:04.674Z,369.70
2018-12-19T19:16:32.668Z,339.00
2018-12-19T19:19:00.516Z,374.17
2018-12-19T19:21:28.755Z,390.67
2018-12-19T19:23:57.748Z,365.03
2018-12-19T19:26:25.639Z,378.57
2018-12-19T19:28:53.633Z,370.37
2018-12-19T19:31:21.805Z,382.20
2018-12-19T19:33:49.726Z,363.33
2018-12-19T19:36:17.797Z,393.90
2018-12-19T19:41:19.405Z,356.70
2018-12-19T19:43:47.337Z,367.20
2018-12-19T19:46:16.106Z,404.93
2018-12-19T19:48:43.976Z,389.63
2018-12-19T19:51:16.926Z,400.00
2018-12-19T19:53:42.841Z,388.63
2018-12-19T19:58:45.504Z,422.40
2018-12-19T20:01:14.419Z,402.53
2018-12-19T20:03:42.385Z,401.80
2018-12-19T20:06:11.217Z,401.90
2018-12-19T20:08:39.136Z,396.20
2018-12-19T20:11:07.288Z,391.70
2018-12-19T20:13:35.397Z,419.00
2018-12-19T20:16:03.436Z,403.90
2018-12-19T20:18:31.449Z,388.80
2018-12-19T20:24:09.101Z,431.07
2018-12-19T20:26:38.123Z,403.83
2018-12-19T20:29:08.922Z,425.53
2018-12-19T20:31:38.122Z,428.00
2018-12-19T20:34:06.925Z,453.73
2018-12-19T20:36:34.997Z,431.47
2018-12-19T20:39:05.910Z,455.53
2018-12-19T20:41:37.465Z,444.57
2018-12-19T20:44:06.858Z,449.93
2018-12-19T20:46:34.777Z,438.30
2018-12-19T20:49:02.721Z,414.33
2018-12-19T20:51:30.693Z,451.77
2018-12-19T20:53:58.737Z,451.20
2018-12-19T20:56:26.806Z,461.30
2018-12-19T20:58:55.115Z,434.13
2018-12-19T21:01:23.302Z,432.20
2018-12-19T21:03:51.204Z,451.43
2018-12-19T21:06:19.262Z,450.90
2018-12-19T21:08:47.334Z,416.67
2018-12-19T21:11:15.326Z,455.73
2018-12-19T21:13:46.673Z,455.63
2018-12-19T21:16:25.245Z,460.40
2018-12-19T21:18:53.226Z,429.47
2018-12-19T21:21:21.096Z,439.57
2018-12-19T21:23:49.122Z,430.87
2018-12-19T21:26:17.356Z,442.10
2018-12-19T21:28:45.304Z,435.00
2018-12-19T21:31:13.328Z,440.87
2018-12-19T21:33:41.154Z,424.60
2018-12-19T21:36:09.556Z,419.87
2018-12-19T21:38:37.539Z,436.47
2018-12-19T21:41:05.471Z,435.13
2018-12-19T21:43:33.328Z,431.80
2018-12-19T21:46:01.568Z,430.37
2018-12-19T21:48:29.358Z,424.00
2018-12-19T21:50:57.372Z,444.47
2018-12-19T21:53:25.203Z,445.20
2018-12-19T21:55:54.150Z,433.87
2018-12-19T21:58:22.057Z,438.77
2018-12-19T22:00:50.379Z,440.00
2018-12-19T22:03:18.409Z,434.27
2018-12-19T22:05:46.478Z,457.97
2018-12-19T22:08:16.052Z,460.37
2018-12-19T22:10:44.262Z,439.07
2018-12-19T22:13:12.228Z,443.13
2018-12-19T22:15:40.185Z,451.90
2018-12-19T22:18:14.143Z,467.00
2018-12-19T22:20:42.348Z,439.63
2018-12-19T22:23:10.767Z,439.17
2018-12-19T22:25:38.746Z,428.70
2018-12-19T22:28:07.474Z,446.77
2018-12-19T22:30:35.381Z,409.90
2018-12-19T22:33:03.451Z,451.80
2018-12-19T22:35:31.353Z,408.13
2018-12-19T22:37:59.187Z,448.27
2018-12-19T22:40:27.402Z,436.30
2018-12-19T22:42:55.449Z,463.77
2018-12-19T22:45:23.300Z,434.70
2018-12-19T22:47:51.277Z,457.60
2018-12-19T22:50:19.357Z,450.87
2018-12-19T22:52:47.393Z,458.30
2018-12-19T22:55:15.622Z,453.17
2018-12-19T22:57:43.673Z,476.57
2018-12-19T23:00:15.936Z,455.40
2018-12-19T23:02:51.838Z,454.13
2018-12-19T23:05:25.833Z,440.57
2018-12-19T23:07:53.884Z,472.43
2018-12-19T23:10:21.754Z,466.77
2018-12-19T23:12:49.813Z,437.50
2018-12-19T23:15:19.742Z,431.33
2018-12-19T23:17:58.469Z,476.67
2018-12-19T23:20:32.541Z,458.53
2018-12-19T23:23:06.896Z,457.00
2018-12-19T23:25:41.228Z,452.93
2018-12-19T23:28:11.273Z,471.53
2018-12-19T23:30:39.762Z,427.53
2018-12-19T23:33:07.723Z,464.43
2018-12-19T23:35:35.608Z,450.33
2018-12-19T23:38:03.837Z,442.70
2018-12-19T23:40:31.901Z,453.40
2018-12-19T23:42:59.972Z,457.73
2018-12-19T23:45:27.840Z,422.87
2018-12-19T23:47:55.849Z,458.33
2018-12-19T23:50:24.054Z,459.60
2018-12-19T23:52:52.063Z,451.33
2018-12-19T23:55:19.994Z,411.67
2018-12-19T23:57:47.824Z,437.67
